Lincolnton, GA

9:31 AM EDT on August 31, 2015 (GMT -0400)
Lincoln County Board of Education | | Change Station
CLOSE
Current Station
Personal Weather Station
Location: Lincolnton, GA
Elevation: 443 ft
Nearby Weather Stations

Elev 443 ft 33.79 °N, 82.49 °W | Updated 2 seconds ago

Overcast
Overcast
67.4 °F
Feels Like 67.4 °F
N
0.0
Wind Variable Wind from NE
Gusts 2.0 mph

Today
High -- | Low -- °F
--% Chance of Precip.
Yesterday
High -- | Low -- °F
Precip. -- in
7:02 AM 7:57 PM
Waning Gibbous, 95% visible
Pressure 30.12 in
Visibility 0.2 miles
Clouds Overcast 100 ft
Dew Point 67 °F
Humidity 98%
Rainfall 0.00 in
Snow Depth Not available.
UV 1 out of 12
Pollen 7.10 out of 12
Air Quality Not available.
Flu Activity Not available.
METAR KIIY 311315Z AUTO 36005KT 1/4SM FG OVC001 20/20 A3012 RMK AO2
Pressure 30.12 in
Visibility 0.2 miles
Clouds Overcast 100 ft
Dew Point 67 °F
Humidity 98%
Rainfall 0.00 in
Snow Depth Not available.
UV 1 out of 12
Pollen 7.10 out of 12
Air Quality Not available.
Flu Activity Not available.
METAR KIIY 311315Z AUTO 36005KT 1/4SM FG OVC001 20/20 A3012 RMK AO2

10-Day Weather Forecast

×

Almanac

Astronomy

Aug. 31, 2015 Rise Set
Actual Time
Civil Twilight
Nautical Twilight
Astronomical Twilight
Moon
Length of Visible Light
Length of Day
Tomorrow will be .
, % of the Moon is Illuminated

Today's Extremes

State Highs State Lows

Community

WunderPhotos

Upload Photos

1,851,218 photos uploaded!

WunderBlogs® & News

Nearby

Air Quality

  Air Quality AQ Index Pollutant
Not available.

Snow Depth

Station Depth Elevation

Earthquake Activity

City Distance Mag. Time & Date
Minimum magnitude displayed is 2.5.

Coastal Water Temperatures

Place Temperature

Stations

Nearby Weather Stations

Station Location Temp. Windchill Dew Point Humidity Wind Precip. Elev Updated Type